createdAt,value
2023-04-10T00:01:50.820Z,5.30
2023-04-10T00:06:54.289Z,6.80
2023-04-10T00:11:57.904Z,6.20
2023-04-10T00:17:01.618Z,6.50
2023-04-10T00:22:06.272Z,5.50
2023-04-10T00:27:09.580Z,5.00
2023-04-10T00:32:13.342Z,5.60
2023-04-10T00:37:17.836Z,5.50
2023-04-10T00:42:21.262Z,4.90
2023-04-10T00:47:25.642Z,5.00
2023-04-10T00:57:33.702Z,5.50
2023-04-10T01:02:37.263Z,5.70
2023-04-10T01:07:52.961Z,5.00
2023-04-10T01:13:06.033Z,5.20
2023-04-10T01:18:15.976Z,6.50
2023-04-10T01:24:19.999Z,5.40
2023-04-10T01:29:29.776Z,6.60
2023-04-10T01:34:44.212Z,6.50
2023-04-10T01:44:54.745Z,6.20
2023-04-10T01:49:59.087Z,6.60
2023-04-10T02:00:07.587Z,6.40
2023-04-10T02:05:11.277Z,6.10
2023-04-10T02:10:22.371Z,6.30
2023-04-10T02:15:28.651Z,7.60
2023-04-10T02:20:32.683Z,5.70
2023-04-10T02:25:36.492Z,5.60
2023-04-10T02:30:39.803Z,6.70
2023-04-10T02:35:43.760Z,6.60
2023-04-10T02:40:47.241Z,7.10
2023-04-10T02:45:50.653Z,6.30
2023-04-10T02:51:00.223Z,7.00
2023-04-10T02:56:04.092Z,6.40
2023-04-10T03:01:07.523Z,5.90
2023-04-10T03:06:11.380Z,5.70
2023-04-10T03:11:14.785Z,6.30
2023-04-10T03:16:18.929Z,6.00
2023-04-10T03:21:22.430Z,6.40
2023-04-10T03:26:25.948Z,6.50
2023-04-10T03:31:29.851Z,6.40
2023-04-10T03:36:33.290Z,7.60
2023-04-10T03:41:36.817Z,6.10
2023-04-10T03:46:40.796Z,6.20
2023-04-10T03:51:44.348Z,5.70
2023-04-10T03:56:47.756Z,5.70
2023-04-10T04:01:51.416Z,7.10
2023-04-10T04:06:55.000Z,7.00
2023-04-10T04:11:58.405Z,6.70
2023-04-10T04:17:02.019Z,6.60
2023-04-10T04:22:05.953Z,7.40
2023-04-10T04:27:09.361Z,6.40
2023-04-10T04:32:12.962Z,7.50
2023-04-10T04:37:16.497Z,6.40
2023-04-10T04:42:19.913Z,5.10
2023-04-10T04:47:24.777Z,7.70
2023-04-10T04:52:28.380Z,6.30
2023-04-10T04:57:31.993Z,6.10
2023-04-10T05:02:35.916Z,4.90
2023-04-10T05:07:39.634Z,5.30
2023-04-10T05:12:43.557Z,5.30
2023-04-10T05:17:51.277Z,4.10
2023-04-10T05:22:54.993Z,5.30
2023-04-10T05:27:58.404Z,11.60
2023-04-10T05:33:01.982Z,4.90
2023-04-10T05:38:05.745Z,4.10
2023-04-10T05:43:09.986Z,3.20
2023-04-10T05:48:13.288Z,3.60
2023-04-10T05:53:21.716Z,4.20
2023-04-10T05:58:25.340Z,3.30
2023-04-10T06:03:31.063Z,3.40
2023-04-10T06:08:37.797Z,4.00
2023-04-10T06:13:41.411Z,3.40
2023-04-10T06:18:44.722Z,3.00
2023-04-10T06:23:48.349Z,3.00
2023-04-10T06:28:51.929Z,3.60
2023-04-10T06:33:55.988Z,6.50
2023-04-10T06:38:59.316Z,4.90
2023-04-10T06:44:03.587Z,3.40
2023-04-10T06:54:10.873Z,3.00
2023-04-10T06:59:14.295Z,3.20
2023-04-10T07:04:17.827Z,3.50
2023-04-10T07:09:21.520Z,2.40
2023-04-10T07:14:25.049Z,3.10
2023-04-10T07:19:28.655Z,3.00
2023-04-10T07:24:32.932Z,3.70
2023-04-10T07:34:39.823Z,4.40
2023-04-10T07:39:43.160Z,3.60
2023-04-10T07:44:46.533Z,4.10
2023-04-10T07:49:50.061Z,4.10
2023-04-10T07:54:53.568Z,3.50
2023-04-10T07:59:57.596Z,3.10
2023-04-10T08:05:01.296Z,3.20
2023-04-10T08:10:37.910Z,2.80
2023-04-10T08:15:41.634Z,2.90
2023-04-10T08:20:44.935Z,5.50
2023-04-10T08:25:48.449Z,2.90
2023-04-10T08:30:53.925Z,3.00
2023-04-10T08:35:57.387Z,2.90
2023-04-10T08:41:01.045Z,3.10
2023-04-10T08:46:04.976Z,3.20
2023-04-10T08:51:19.450Z,2.10
2023-04-10T08:56:24.928Z,3.30
2023-04-10T09:01:28.441Z,3.20
2023-04-10T09:06:32.451Z,2.40
2023-04-10T09:11:55.626Z,1.80
2023-04-10T09:17:19.550Z,2.80
2023-04-10T09:22:34.005Z,2.20
2023-04-10T09:27:40.572Z,3.00
2023-04-10T09:32:46.878Z,2.70
2023-04-10T09:37:50.580Z,2.00
2023-04-10T09:42:56.339Z,2.10
2023-04-10T09:48:08.397Z,2.60
2023-04-10T09:53:16.904Z,2.40
2023-04-10T09:58:21.514Z,1.90
2023-04-10T10:03:25.953Z,2.10
2023-04-10T10:08:33.585Z,2.20
2023-04-10T10:13:57.484Z,1.80
2023-04-10T10:19:07.237Z,2.30
2023-04-10T10:24:12.712Z,2.40
2023-04-10T10:29:18.844Z,2.60
2023-04-10T10:34:22.395Z,2.10
2023-04-10T10:39:34.514Z,2.00
2023-04-10T10:44:51.443Z,2.00
2023-04-10T10:50:02.196Z,2.20
2023-04-10T10:55:36.986Z,2.00
2023-04-10T11:06:04.135Z,3.50
2023-04-10T11:11:13.342Z,2.40
2023-04-10T11:16:16.918Z,2.30
2023-04-10T11:21:22.309Z,2.70
2023-04-10T11:26:43.865Z,1.70
2023-04-10T11:32:06.223Z,2.30
2023-04-10T11:37:09.611Z,1.70
2023-04-10T11:42:13.130Z,2.10
2023-04-10T11:47:16.851Z,2.50
2023-04-10T11:57:36.501Z,2.40
2023-04-10T12:02:52.741Z,1.80
2023-04-10T12:07:56.404Z,2.10
2023-04-10T12:13:01.272Z,2.00
2023-04-10T12:18:04.765Z,1.70
2023-04-10T12:28:18.870Z,1.70
2023-04-10T12:33:26.087Z,2.10
2023-04-10T12:38:42.386Z,3.10
2023-04-10T12:43:46.005Z,1.50
2023-04-10T12:48:49.314Z,1.50
2023-04-10T12:53:53.761Z,1.80
2023-04-10T12:59:09.255Z,1.50
2023-04-10T13:04:12.858Z,1.50
2023-04-10T13:14:21.328Z,1.30
2023-04-10T13:19:24.640Z,2.30
2023-04-10T13:24:28.155Z,1.80
2023-04-10T13:29:31.667Z,1.50
2023-04-10T13:34:35.695Z,1.50
2023-04-10T13:39:39.331Z,3.30
2023-04-10T13:44:42.836Z,2.80
2023-04-10T13:49:46.491Z,1.60
2023-04-10T13:59:53.899Z,1.70
2023-04-10T14:04:57.310Z,1.90
2023-04-10T14:10:01.748Z,1.70
2023-04-10T14:15:06.112Z,2.20
2023-04-10T14:20:11.676Z,3.50
2023-04-10T14:25:16.282Z,1.90
2023-04-10T14:30:19.794Z,2.30
2023-04-10T14:35:23.432Z,3.30
2023-04-10T14:40:26.736Z,1.20
2023-04-10T14:45:30.342Z,1.00
2023-04-10T14:50:34.296Z,1.60
2023-04-10T14:55:37.689Z,1.50
2023-04-10T15:00:41.297Z,1.30
2023-04-10T15:05:44.923Z,1.50
2023-04-10T15:10:50.686Z,1.80
2023-04-10T15:15:54.509Z,1.90
2023-04-10T15:20:57.824Z,2.30
2023-04-10T15:26:01.274Z,5.40
2023-04-10T15:31:05.307Z,3.40
2023-04-10T15:36:09.463Z,3.20
2023-04-10T15:41:13.898Z,3.10
2023-04-10T15:46:19.454Z,3.30
2023-04-10T15:51:22.799Z,3.40
2023-04-10T15:56:26.215Z,2.60
2023-04-10T16:01:29.682Z,2.30
2023-04-10T16:06:33.604Z,2.10
2023-04-10T16:11:37.070Z,1.80
2023-04-10T16:16:40.582Z,2.00
2023-04-10T16:21:43.998Z,1.60
2023-04-10T16:26:47.498Z,1.90
2023-04-10T16:31:51.330Z,1.40
2023-04-10T16:36:54.854Z,2.10
2023-04-10T16:41:58.580Z,2.00
2023-04-10T16:47:02.035Z,4.00
2023-04-10T16:52:06.626Z,1.60
2023-04-10T16:57:10.457Z,1.70
2023-04-10T17:02:13.917Z,1.80
2023-04-10T17:07:17.892Z,2.10
2023-04-10T17:12:21.416Z,2.50
2023-04-10T17:17:25.034Z,13.70
2023-04-10T17:22:28.547Z,10.30
2023-04-10T17:27:32.158Z,4.10
2023-04-10T17:32:35.827Z,4.30
2023-04-10T17:37:39.260Z,4.00
2023-04-10T17:42:42.716Z,5.40
2023-04-10T17:47:46.231Z,3.70
2023-04-10T17:52:49.737Z,4.90
2023-04-10T18:03:01.219Z,3.60
2023-04-10T18:08:04.892Z,4.70
2023-04-10T18:13:08.304Z,25.80
2023-04-10T18:18:11.768Z,29.70
2023-04-10T18:23:15.353Z,18.10
2023-04-10T18:28:20.441Z,11.30
2023-04-10T18:33:25.335Z,42.30
2023-04-10T18:38:28.859Z,24.80
2023-04-10T18:43:32.238Z,14.50
2023-04-10T18:48:41.976Z,9.20
2023-04-10T18:53:45.548Z,7.20
2023-04-10T18:58:50.203Z,7.30
2023-04-10T19:03:55.418Z,6.50
2023-04-10T19:08:59.687Z,7.50
2023-04-10T19:14:03.410Z,6.10
2023-04-10T19:19:09.470Z,6.50
2023-04-10T19:24:13.287Z,6.20
2023-04-10T19:29:16.700Z,6.30
2023-04-10T19:34:20.219Z,6.90
2023-04-10T19:39:24.244Z,5.80
2023-04-10T19:44:27.654Z,5.20
2023-04-10T19:49:37.039Z,4.30
2023-04-10T19:54:40.415Z,4.30
2023-04-10T19:59:43.729Z,4.00
2023-04-10T20:04:48.686Z,5.30
2023-04-10T20:09:52.369Z,4.00
2023-04-10T20:14:56.144Z,3.30
2023-04-10T20:19:59.438Z,4.80
2023-04-10T20:25:02.868Z,3.90
2023-04-10T20:30:07.183Z,3.40
2023-04-10T20:40:13.912Z,4.80
2023-04-10T20:45:17.327Z,6.20
2023-04-10T20:50:21.034Z,8.40
2023-04-10T20:55:24.349Z,11.60
2023-04-10T21:00:31.042Z,11.40
2023-04-10T21:05:34.550Z,12.00
2023-04-10T21:10:44.228Z,11.00
2023-04-10T21:15:49.707Z,8.80
2023-04-10T21:20:53.000Z,8.00
2023-04-10T21:25:56.606Z,7.90
2023-04-10T21:31:00.143Z,6.70
2023-04-10T21:36:05.259Z,6.90
2023-04-10T21:41:08.606Z,7.70
2023-04-10T21:46:12.117Z,9.30
2023-04-10T21:51:15.620Z,9.30
2023-04-10T21:56:19.128Z,9.50
2023-04-10T22:01:22.610Z,9.00
2023-04-10T22:06:26.987Z,9.90
2023-04-10T22:11:30.398Z,8.90
2023-04-10T22:16:33.936Z,9.20
2023-04-10T22:21:37.637Z,7.30
2023-04-10T22:26:42.413Z,6.90
2023-04-10T22:31:45.897Z,6.90
2023-04-10T22:36:51.982Z,7.70
2023-04-10T22:41:55.491Z,7.60
2023-04-10T22:46:59.109Z,7.10
2023-04-10T22:52:02.412Z,7.60
2023-04-10T22:57:06.333Z,5.10
2023-04-10T23:02:09.890Z,6.90
2023-04-10T23:07:13.474Z,6.90
2023-04-10T23:12:16.883Z,7.20
2023-04-10T23:17:21.227Z,7.40
2023-04-10T23:22:24.530Z,7.50
2023-04-10T23:27:27.949Z,8.70
2023-04-10T23:32:31.621Z,8.10
2023-04-10T23:37:35.588Z,8.10
2023-04-10T23:42:39.010Z,7.80
2023-04-10T23:47:42.461Z,8.00
2023-04-10T23:52:50.238Z,7.30
2023-04-10T23:57:53.757Z,6.30
